Time;durP1;ratioP1;P1;durP2;ratioP2;P2;SDS_P1;SDS_P2;PMS_P1;PMS_P2;Temp;Humidity;BMP_temperature;BMP_pressure;BME280_temperature;BME280_humidity;BME280_pressure;Samples;Min_cycle;Max_cycle;Signal;HPM_P1;HPM_P2
2023/04/03 00:02:07;;;;;;;9.40;6.13;;;;;;;;;;4984726;28;20072;-63
2023/04/03 00:04:34;;;;;;;12.45;8.05;;;;;;;;;;4977834;28;20602;-64
2023/04/03 00:07:01;;;;;;;12.07;7.18;;;;;;;;;;4981915;28;20391;-64
2023/04/03 00:09:28;;;;;;;10.27;6.03;;;;;;;;;;4974143;28;20059;-64
2023/04/03 00:11:56;;;;;;;8.60;6.03;;;;;;;;;;4973882;28;20046;-64
2023/04/03 00:14:23;;;;;;;10.63;6.53;;;;;;;;;;4993219;28;20132;-64
2023/04/03 00:16:50;;;;;;;10.07;6.95;;;;;;;;;;4979896;28;20046;-64
2023/04/03 00:19:17;;;;;;;9.45;6.57;;;;;;;;;;4985530;28;20138;-63
2023/04/03 00:21:43;;;;;;;10.95;6.47;;;;;;;;;;4981571;28;20110;-63
2023/04/03 00:24:10;;;;;;;9.75;5.72;;;;;;;;;;4975094;28;20058;-64
2023/04/03 00:26:37;;;;;;;10.32;6.65;;;;;;;;;;4982398;28;20065;-63
2023/04/03 00:29:05;;;;;;;8.43;5.75;;;;;;;;;;4973586;28;20408;-64
2023/04/03 00:31:32;;;;;;;9.48;6.57;;;;;;;;;;4976730;28;20455;-64
2023/04/03 00:33:59;;;;;;;9.45;5.72;;;;;;;;;;4973652;28;20047;-64
2023/04/03 00:36:26;;;;;;;9.18;5.85;;;;;;;;;;4981335;28;20050;-63
2023/04/03 00:38:53;;;;;;;9.02;6.00;;;;;;;;;;4992882;28;20054;-65
2023/04/03 00:41:20;;;;;;;9.75;5.70;;;;;;;;;;4991935;28;20058;-65
2023/04/03 00:43:47;;;;;;;10.40;6.53;;;;;;;;;;4993073;28;20124;-63
2023/04/03 00:46:15;;;;;;;8.98;5.85;;;;;;;;;;4987393;28;20050;-64
2023/04/03 00:48:43;;;;;;;8.85;5.53;;;;;;;;;;4973502;28;20098;-65
2023/04/03 00:51:13;;;;;;;9.57;5.88;;;;;;;;;;4973854;28;20058;-64
2023/04/03 00:53:45;;;;;;;8.85;5.90;;;;;;;;;;4972570;28;20081;-64
2023/04/03 00:56:14;;;;;;;10.90;6.35;;;;;;;;;;4976674;28;20133;-64
2023/04/03 00:58:46;;;;;;;13.02;6.20;;;;;;;;;;4992300;28;20054;-64
2023/04/03 01:01:22;;;;;;;10.50;6.18;;;;;;;;;;4984196;28;20058;-64
2023/04/03 01:03:49;;;;;;;8.30;5.53;;;;;;;;;;4993094;28;20094;-64
2023/04/03 01:06:18;;;;;;;9.48;5.53;;;;;;;;;;4992231;28;20066;-65
2023/04/03 01:08:46;;;;;;;8.48;5.80;;;;;;;;;;4992357;28;20050;-64
2023/04/03 01:11:13;;;;;;;9.23;6.20;;;;;;;;;;5005069;23;20600;-77
2023/04/03 01:13:40;;;;;;;9.18;6.05;;;;;;;;;;5031380;28;20136;-77
2023/04/03 01:16:08;;;;;;;9.32;6.28;;;;;;;;;;5032566;28;20052;-78
2023/04/03 01:18:40;;;;;;;9.95;6.60;;;;;;;;;;5034630;28;20101;-78
2023/04/03 01:21:37;;;;;;;9.40;5.57;;;;;;;;;;5022730;28;20041;-79
2023/04/03 01:24:41;;;;;;;9.98;6.35;;;;;;;;;;5034971;28;20053;-78
2023/04/03 01:27:11;;;;;;;10.52;5.93;;;;;;;;;;5030459;28;20084;-79
2023/04/03 01:29:38;;;;;;;9.32;5.50;;;;;;;;;;5034161;28;20054;-78
2023/04/03 01:32:07;;;;;;;8.57;5.55;;;;;;;;;;5023689;28;20081;-78
2023/04/03 01:34:33;;;;;;;10.35;5.82;;;;;;;;;;5016703;28;20489;-78
2023/04/03 01:37:00;;;;;;;9.07;5.70;;;;;;;;;;5035163;28;20518;-79
2023/04/03 01:39:27;;;;;;;9.98;5.70;;;;;;;;;;5035089;28;20132;-79
2023/04/03 01:41:54;;;;;;;8.20;5.50;;;;;;;;;;5027255;28;20099;-77
2023/04/03 01:44:20;;;;;;;7.57;5.30;;;;;;;;;;5034976;28;20056;-77
2023/04/03 01:46:47;;;;;;;8.15;5.30;;;;;;;;;;5032749;28;20137;-79
2023/04/03 01:49:15;;;;;;;9.98;5.80;;;;;;;;;;5033114;28;20428;-79
2023/04/03 01:51:42;;;;;;;7.30;4.93;;;;;;;;;;5025979;28;20053;-79
2023/04/03 01:54:08;;;;;;;8.25;5.10;;;;;;;;;;5015191;28;20131;-77
2023/04/03 01:56:35;;;;;;;8.10;5.28;;;;;;;;;;5013507;28;20046;-78
2023/04/03 01:59:02;;;;;;;9.07;5.30;;;;;;;;;;5013499;28;20513;-77
2023/04/03 02:01:28;;;;;;;8.82;5.43;;;;;;;;;;5013559;28;20050;-78
2023/04/03 02:03:55;;;;;;;11.35;5.93;;;;;;;;;;5013803;28;20060;-77
2023/04/03 02:06:23;;;;;;;8.63;5.60;;;;;;;;;;5015302;28;20050;-77
2023/04/03 02:08:50;;;;;;;8.68;5.10;;;;;;;;;;5017753;28;20464;-78
2023/04/03 02:11:16;;;;;;;8.07;5.10;;;;;;;;;;5016976;28;20515;-77
2023/04/03 02:13:43;;;;;;;8.27;5.13;;;;;;;;;;5017138;28;20081;-77
2023/04/03 02:16:11;;;;;;;7.57;4.93;;;;;;;;;;5017100;28;20081;-79
2023/04/03 02:18:38;;;;;;;8.98;5.65;;;;;;;;;;5019417;28;20050;-80
2023/04/03 02:21:04;;;;;;;7.65;5.03;;;;;;;;;;5036688;28;20125;-77
2023/04/03 02:23:32;;;;;;;8.88;5.00;;;;;;;;;;5040654;28;20133;-78
2023/04/03 02:26:07;;;;;;;10.35;5.07;;;;;;;;;;5043015;28;20062;-78
2023/04/03 02:28:34;;;;;;;11.07;5.72;;;;;;;;;;5043061;28;20050;-78
2023/04/03 02:31:01;;;;;;;8.48;5.22;;;;;;;;;;5041541;28;20076;-78
2023/04/03 02:33:27;;;;;;;9.70;5.53;;;;;;;;;;5036373;28;20107;-77
2023/04/03 02:35:55;;;;;;;8.02;5.18;;;;;;;;;;5035933;28;20046;-77
2023/04/03 02:38:22;;;;;;;8.07;4.78;;;;;;;;;;5035617;28;20047;-76
2023/04/03 02:40:50;;;;;;;8.35;5.40;;;;;;;;;;5035199;28;20041;-77
2023/04/03 02:43:17;;;;;;;7.10;5.05;;;;;;;;;;5028412;28;20054;-78
2023/04/03 02:45:44;;;;;;;8.25;4.85;;;;;;;;;;5015511;28;20200;-78
2023/04/03 02:48:11;;;;;;;7.93;4.88;;;;;;;;;;5016554;28;20042;-78
2023/04/03 02:50:38;;;;;;;8.30;4.50;;;;;;;;;;5016756;28;20116;-79
2023/04/03 02:53:05;;;;;;;8.52;5.47;;;;;;;;;;5016711;28;20046;-78
2023/04/03 02:55:31;;;;;;;7.03;4.60;;;;;;;;;;5034292;28;20145;-78
2023/04/03 02:57:59;;;;;;;8.05;5.20;;;;;;;;;;5043768;28;20124;-78
2023/04/03 03:00:26;;;;;;;8.25;4.63;;;;;;;;;;5042955;28;20077;-79
2023/04/03 03:02:53;;;;;;;7.68;4.57;;;;;;;;;;5040811;28;20125;-78
2023/04/03 03:05:19;;;;;;;7.20;4.68;;;;;;;;;;5043964;28;20049;-78
2023/04/03 03:07:46;;;;;;;7.55;4.85;;;;;;;;;;5039581;28;20100;-78
2023/04/03 03:10:12;;;;;;;5.57;4.03;;;;;;;;;;5023819;28;20114;-78
2023/04/03 03:12:40;;;;;;;7.55;4.82;;;;;;;;;;5023530;28;20137;-77
2023/04/03 03:15:09;;;;;;;6.10;4.20;;;;;;;;;;5021604;28;20052;-78
2023/04/03 03:17:36;;;;;;;7.43;4.47;;;;;;;;;;5015212;28;20060;-79
2023/04/03 03:20:03;;;;;;;9.20;4.57;;;;;;;;;;5018209;28;20069;-79
2023/04/03 03:22:29;;;;;;;7.63;4.32;;;;;;;;;;5016893;28;20054;-78
2023/04/03 03:24:56;;;;;;;7.68;4.45;;;;;;;;;;5034146;28;20045;-78
2023/04/03 03:27:23;;;;;;;8.15;4.25;;;;;;;;;;5034074;28;20460;-77
2023/04/03 03:29:50;;;;;;;6.22;3.97;;;;;;;;;;5025069;28;20124;-78
2023/04/03 03:32:18;;;;;;;7.60;4.40;;;;;;;;;;5015096;28;20129;-79
2023/04/03 03:34:45;;;;;;;6.70;4.30;;;;;;;;;;5032198;28;20129;-78
2023/04/03 03:37:11;;;;;;;5.88;4.00;;;;;;;;;;5034398;28;20128;-77
2023/04/03 03:39:38;;;;;;;8.63;4.78;;;;;;;;;;5034350;28;20049;-79
2023/04/03 03:42:05;;;;;;;6.75;4.68;;;;;;;;;;5034123;28;20132;-77
2023/04/03 03:44:31;;;;;;;6.28;4.10;;;;;;;;;;5034141;28;20049;-77
2023/04/03 03:46:58;;;;;;;8.02;3.92;;;;;;;;;;5033657;28;20059;-77
2023/04/03 03:49:26;;;;;;;7.78;4.47;;;;;;;;;;5035547;28;20128;-78
2023/04/03 03:51:53;;;;;;;6.25;4.38;;;;;;;;;;5029087;28;20133;-77
2023/04/03 03:54:19;;;;;;;8.50;4.20;;;;;;;;;;5035772;28;20058;-76
2023/04/03 03:56:46;;;;;;;6.40;4.18;;;;;;;;;;5034035;28;20504;-77
2023/04/03 03:59:13;;;;;;;7.78;4.68;;;;;;;;;;5035739;28;20041;-77
2023/04/03 04:01:43;;;;;;;7.10;4.30;;;;;;;;;;5028503;28;20670;-77
2023/04/03 04:04:09;;;;;;;6.57;3.90;;;;;;;;;;5034942;28;20154;-78
2023/04/03 04:06:37;;;;;;;8.55;4.57;;;;;;;;;;5032355;28;20073;-78
2023/04/03 04:09:04;;;;;;;7.95;4.15;;;;;;;;;;5015229;28;20050;-78
2023/04/03 04:11:32;;;;;;;7.13;4.07;;;;;;;;;;5015170;28;20056;-78
2023/04/03 04:13:58;;;;;;;6.30;4.25;;;;;;;;;;5034661;28;20149;-79
2023/04/03 04:16:25;;;;;;;7.18;4.18;;;;;;;;;;5034252;28;20132;-79
2023/04/03 04:18:52;;;;;;;6.30;4.00;;;;;;;;;;5014775;28;20060;-77
2023/04/03 04:21:18;;;;;;;6.10;3.92;;;;;;;;;;5014282;28;20060;-77
2023/04/03 04:23:46;;;;;;;7.20;4.57;;;;;;;;;;5013886;28;20069;-78
2023/04/03 04:26:13;;;;;;;6.78;4.20;;;;;;;;;;5013919;28;20574;-78
2023/04/03 04:28:40;;;;;;;6.68;3.63;;;;;;;;;;5014518;28;20132;-78
2023/04/03 04:31:06;;;;;;;7.18;4.30;;;;;;;;;;5033531;28;20045;-78
2023/04/03 04:33:33;;;;;;;6.43;4.18;;;;;;;;;;5034343;28;20053;-77
2023/04/03 04:36:00;;;;;;;7.18;4.07;;;;;;;;;;5034070;28;20472;-78
2023/04/03 04:38:26;;;;;;;6.30;4.32;;;;;;;;;;5033724;28;20132;-78
2023/04/03 04:40:54;;;;;;;8.65;5.28;;;;;;;;;;5033367;28;20048;-77
2023/04/03 04:43:21;;;;;;;7.75;4.75;;;;;;;;;;5033994;28;20046;-77
2023/04/03 04:45:48;;;;;;;7.05;4.47;;;;;;;;;;5032551;28;20049;-78
2023/04/03 04:48:14;;;;;;;6.75;4.45;;;;;;;;;;5034732;28;20128;-78
2023/04/03 04:50:41;;;;;;;8.27;4.55;;;;;;;;;;5034062;28;20068;-78
2023/04/03 04:53:08;;;;;;;7.10;4.15;;;;;;;;;;5034731;28;20081;-78
2023/04/03 04:55:35;;;;;;;6.57;4.07;;;;;;;;;;5032038;28;20049;-76
2023/04/03 04:58:03;;;;;;;6.78;4.38;;;;;;;;;;5027165;28;20065;-78
2023/04/03 05:00:29;;;;;;;11.50;4.70;;;;;;;;;;5025368;28;20117;-78
2023/04/03 05:02:56;;;;;;;7.38;4.40;;;;;;;;;;5026068;28;20045;-78
2023/04/03 05:05:23;;;;;;;6.82;4.22;;;;;;;;;;5026186;28;20136;-79
2023/04/03 05:07:49;;;;;;;6.95;4.78;;;;;;;;;;5025196;28;20065;-78
2023/04/03 05:10:16;;;;;;;9.65;4.53;;;;;;;;;;5034034;28;20132;-78
2023/04/03 05:12:43;;;;;;;8.52;4.63;;;;;;;;;;5014978;28;20508;-79
2023/04/03 05:15:11;;;;;;;7.75;4.82;;;;;;;;;;5013954;28;20653;-78
2023/04/03 05:17:38;;;;;;;7.28;4.50;;;;;;;;;;5028090;28;20451;-78
2023/04/03 05:20:06;;;;;;;6.68;4.15;;;;;;;;;;5033395;28;20052;-77
2023/04/03 05:22:33;;;;;;;7.60;4.45;;;;;;;;;;5033732;28;20053;-77
2023/04/03 05:25:00;;;;;;;9.13;4.78;;;;;;;;;;5033482;28;20132;-79
2023/04/03 05:27:28;;;;;;;6.05;4.00;;;;;;;;;;5032344;28;20046;-78
2023/04/03 05:29:55;;;;;;;11.20;4.43;;;;;;;;;;5032941;28;20050;-78
2023/04/03 05:32:23;;;;;;;8.45;4.40;;;;;;;;;;5020392;28;20467;-77
2023/04/03 05:34:51;;;;;;;7.97;4.63;;;;;;;;;;5013075;28;20125;-76
2023/04/03 05:37:18;;;;;;;9.75;5.43;;;;;;;;;;5017073;28;20046;-76
2023/04/03 05:39:45;;;;;;;7.43;4.65;;;;;;;;;;5031551;28;20132;-76
2023/04/03 05:42:12;;;;;;;8.23;5.13;;;;;;;;;;5033649;28;20046;-77
2023/04/03 05:44:40;;;;;;;8.00;4.78;;;;;;;;;;5028980;28;20525;-77
2023/04/03 05:47:07;;;;;;;9.20;5.18;;;;;;;;;;5021471;28;20053;-77
2023/04/03 05:49:35;;;;;;;7.07;4.30;;;;;;;;;;5013591;28;20050;-78
2023/04/03 05:52:02;;;;;;;7.35;4.72;;;;;;;;;;5013408;28;20501;-79
2023/04/03 05:54:31;;;;;;;7.18;4.75;;;;;;;;;;5014415;28;20056;-78
2023/04/03 05:56:57;;;;;;;8.25;5.25;;;;;;;;;;5015943;28;20124;-78
2023/04/03 05:59:24;;;;;;;7.97;4.78;;;;;;;;;;5026554;28;20046;-77
2023/04/03 06:01:51;;;;;;;7.55;4.65;;;;;;;;;;5028577;28;20077;-79
2023/04/03 06:04:18;;;;;;;8.10;5.18;;;;;;;;;;5033557;28;20100;-78
2023/04/03 06:06:49;;;;;;;7.53;4.68;;;;;;;;;;5033249;28;20045;-78
2023/04/03 06:09:17;;;;;;;7.13;4.80;;;;;;;;;;5024426;28;20483;-78
2023/04/03 06:11:43;;;;;;;7.47;4.85;;;;;;;;;;5032810;28;20132;-78
2023/04/03 06:14:11;;;;;;;8.48;4.68;;;;;;;;;;5018381;28;20109;-79
2023/04/03 06:16:39;;;;;;;11.80;4.72;;;;;;;;;;5012748;28;20041;-79
2023/04/03 06:19:06;;;;;;;8.10;5.43;;;;;;;;;;5013255;28;20054;-79
2023/04/03 06:21:33;;;;;;;7.60;4.85;;;;;;;;;;5018120;28;20038;-79
2023/04/03 06:24:01;;;;;;;8.77;4.63;;;;;;;;;;5038158;28;20115;-78
2023/04/03 06:26:28;;;;;;;8.70;5.18;;;;;;;;;;5033102;28;20674;-78
2023/04/03 06:28:55;;;;;;;8.38;4.47;;;;;;;;;;5023899;28;20133;-78
2023/04/03 06:31:22;;;;;;;7.22;4.88;;;;;;;;;;5024077;28;20496;-78
2023/04/03 06:33:49;;;;;;;7.22;4.72;;;;;;;;;;5021112;28;20129;-78
2023/04/03 06:36:19;;;;;;;8.82;5.05;;;;;;;;;;5017405;28;20132;-78
2023/04/03 06:38:46;;;;;;;7.50;5.43;;;;;;;;;;5023901;28;20070;-78
2023/04/03 06:41:16;;;;;;;8.45;4.95;;;;;;;;;;5033055;28;20038;-78
2023/04/03 06:43:42;;;;;;;7.90;4.53;;;;;;;;;;5029691;28;20155;-77
2023/04/03 06:46:14;;;;;;;8.20;5.07;;;;;;;;;;5015373;28;20064;-78
2023/04/03 06:48:41;;;;;;;8.27;4.82;;;;;;;;;;5017800;28;20152;-79
2023/04/03 06:51:12;;;;;;;9.70;5.32;;;;;;;;;;5032909;28;20045;-78
2023/04/03 06:53:38;;;;;;;9.50;4.70;;;;;;;;;;5031142;28;20132;-79
2023/04/03 06:56:06;;;;;;;8.85;5.30;;;;;;;;;;5035672;28;20133;-77
2023/04/03 06:58:34;;;;;;;10.43;5.35;;;;;;;;;;5037283;28;20825;-78
2023/04/03 07:01:01;;;;;;;8.68;5.47;;;;;;;;;;5041729;28;20450;-77
2023/04/03 07:03:27;;;;;;;8.93;5.07;;;;;;;;;;5037507;28;20452;-78
2023/04/03 07:05:54;;;;;;;9.55;5.95;;;;;;;;;;5024088;28;20053;-78
2023/04/03 07:08:22;;;;;;;10.95;6.03;;;;;;;;;;5041098;28;20061;-78
2023/04/03 07:10:49;;;;;;;7.88;5.20;;;;;;;;;;5038996;28;20049;-78
2023/04/03 07:13:16;;;;;;;7.95;5.35;;;;;;;;;;5039570;28;20091;-79
2023/04/03 07:15:44;;;;;;;7.70;4.80;;;;;;;;;;5037732;28;20049;-78
2023/04/03 07:18:11;;;;;;;8.60;5.47;;;;;;;;;;5024849;28;20048;-79
2023/04/03 07:20:37;;;;;;;7.60;5.60;;;;;;;;;;5057125;28;20128;-78
2023/04/03 07:23:04;;;;;;;9.15;4.82;;;;;;;;;;5030447;28;20479;-77
2023/04/03 07:25:33;;;;;;;9.05;5.60;;;;;;;;;;5020693;28;20107;-77
2023/04/03 07:28:00;;;;;;;8.52;6.10;;;;;;;;;;5026459;28;20129;-79
2023/04/03 07:30:27;;;;;;;10.65;6.03;;;;;;;;;;5037771;28;20048;-78
2023/04/03 07:32:55;;;;;;;8.85;5.68;;;;;;;;;;5032458;28;20074;-78
2023/04/03 07:35:22;;;;;;;10.43;6.22;;;;;;;;;;5029307;28;20080;-78
2023/04/03 07:37:48;;;;;;;9.35;5.63;;;;;;;;;;5019866;28;20046;-78
2023/04/03 07:40:15;;;;;;;10.13;6.47;;;;;;;;;;5019974;28;20042;-80
2023/04/03 07:42:42;;;;;;;8.82;5.80;;;;;;;;;;5034350;28;20069;-79
2023/04/03 07:45:09;;;;;;;9.30;5.53;;;;;;;;;;5026214;28;20106;-79
2023/04/03 07:47:35;;;;;;;10.13;5.93;;;;;;;;;;5022997;28;20125;-79
2023/04/03 07:50:04;;;;;;;10.93;6.43;;;;;;;;;;5030824;28;20121;-78
2023/04/03 07:52:31;;;;;;;9.80;6.07;;;;;;;;;;5026703;28;20049;-77
2023/04/03 07:54:57;;;;;;;8.52;5.93;;;;;;;;;;5019971;28;20069;-81
2023/04/03 07:57:24;;;;;;;10.60;6.25;;;;;;;;;;5024287;28;20105;-79
2023/04/03 07:59:51;;;;;;;9.35;6.20;;;;;;;;;;5018297;28;20513;-80
2023/04/03 08:02:17;;;;;;;9.95;6.53;;;;;;;;;;5020064;28;20141;-78
2023/04/03 08:04:44;;;;;;;8.02;6.20;;;;;;;;;;5025511;28;20472;-78
2023/04/03 08:07:12;;;;;;;11.80;7.20;;;;;;;;;;5015786;28;20604;-79
2023/04/03 08:09:39;;;;;;;12.25;7.32;;;;;;;;;;5016638;28;20058;-78
2023/04/03 08:12:06;;;;;;;9.30;6.68;;;;;;;;;;5016450;28;20139;-78
2023/04/03 08:14:34;;;;;;;10.45;6.85;;;;;;;;;;5016842;28;20432;-79
2023/04/03 08:17:02;;;;;;;12.00;7.20;;;;;;;;;;5017465;28;20046;-78
2023/04/03 08:19:29;;;;;;;11.73;6.75;;;;;;;;;;5036270;28;20049;-80
2023/04/03 08:21:56;;;;;;;12.48;7.50;;;;;;;;;;5031833;28;20088;-79
2023/04/03 08:24:25;;;;;;;12.65;8.07;;;;;;;;;;5017512;28;20058;-82
2023/04/03 08:26:51;;;;;;;9.38;7.72;;;;;;;;;;5022504;28;20079;-82
2023/04/03 08:29:18;;;;;;;10.32;7.20;;;;;;;;;;5039258;28;20069;-88
2023/04/03 08:31:45;;;;;;;11.43;6.97;;;;;;;;;;5038217;28;20077;-81
2023/04/03 08:34:12;;;;;;;11.30;6.97;;;;;;;;;;5039763;28;20045;-84
2023/04/03 08:36:39;;;;;;;9.93;6.50;;;;;;;;;;5039359;28;20045;-79
2023/04/03 08:39:07;;;;;;;11.80;6.93;;;;;;;;;;5029593;28;20511;-79
2023/04/03 08:41:38;;;;;;;10.60;7.13;;;;;;;;;;5017476;28;20111;-79
2023/04/03 08:44:16;;;;;;;11.02;7.55;;;;;;;;;;5015818;28;20053;-78
2023/04/03 08:46:57;;;;;;;14.63;8.50;;;;;;;;;;5015732;28;20053;-79
2023/04/03 08:49:27;;;;;;;10.38;7.03;;;;;;;;;;5024915;28;20096;-78
2023/04/03 08:51:55;;;;;;;10.75;6.90;;;;;;;;;;5034126;28;20045;-78
2023/04/03 08:54:28;;;;;;;11.80;7.13;;;;;;;;;;5036368;28;20085;-79
2023/04/03 08:56:58;;;;;;;9.55;6.18;;;;;;;;;;5035219;28;20049;-77
2023/04/03 08:59:30;;;;;;;11.87;7.80;;;;;;;;;;5035260;28;20053;-79
2023/04/03 09:01:59;;;;;;;9.35;6.28;;;;;;;;;;5034467;28;20765;-79
2023/04/03 09:04:28;;;;;;;9.40;6.43;;;;;;;;;;5035417;28;20045;-79
2023/04/03 09:06:59;;;;;;;10.60;6.85;;;;;;;;;;5027156;28;20056;-78
2023/04/03 09:09:33;;;;;;;10.02;7.60;;;;;;;;;;5014859;28;20046;-78
2023/04/03 09:12:15;;;;;;;9.77;6.63;;;;;;;;;;5021056;28;20131;-78
2023/04/03 09:14:50;;;;;;;9.57;7.07;;;;;;;;;;5037864;28;20484;-80
2023/04/03 09:17:26;;;;;;;9.40;7.03;;;;;;;;;;5015964;28;20129;-78
2023/04/03 09:19:59;;;;;;;7.97;6.75;;;;;;;;;;5041399;28;20086;-79
2023/04/03 09:22:28;;;;;;;9.90;6.72;;;;;;;;;;5015150;28;20445;-79
2023/04/03 09:24:59;;;;;;;11.93;7.28;;;;;;;;;;5019475;28;20117;-79
2023/04/03 09:27:27;;;;;;;10.52;7.10;;;;;;;;;;5036169;28;20053;-79
2023/04/03 09:29:56;;;;;;;9.88;7.32;;;;;;;;;;5035619;28;20404;-78
2023/04/03 09:32:28;;;;;;;10.10;7.40;;;;;;;;;;5029456;28;20045;-79
2023/04/03 09:34:56;;;;;;;9.52;6.97;;;;;;;;;;5022239;28;20041;-78
2023/04/03 09:37:39;;;;;;;11.88;7.47;;;;;;;;;;5015559;28;20070;-78
2023/04/03 09:40:27;;;;;;;9.73;6.70;;;;;;;;;;5013877;28;20049;-79
2023/04/03 09:42:57;;;;;;;9.60;6.97;;;;;;;;;;5031088;28;20084;-77
2023/04/03 09:45:27;;;;;;;9.50;6.57;;;;;;;;;;5033243;28;20479;-79
2023/04/03 09:48:06;;;;;;;9.25;6.25;;;;;;;;;;5032910;28;20050;-78
2023/04/03 09:50:34;;;;;;;8.88;6.03;;;;;;;;;;5020572;28;20128;-78
2023/04/03 09:53:07;;;;;;;8.60;6.47;;;;;;;;;;5013792;28;20054;-78
2023/04/03 09:55:43;;;;;;;10.48;6.45;;;;;;;;;;5013170;28;20116;-77
2023/04/03 09:58:28;;;;;;;11.63;7.57;;;;;;;;;;5014867;28;20092;-79
2023/04/03 10:00:56;;;;;;;31.70;13.90;;;;;;;;;;5030877;28;20049;-80
2023/04/03 10:03:27;;;;;;;17.38;10.02;;;;;;;;;;5034589;28;20046;-77
2023/04/03 10:05:55;;;;;;;12.00;7.20;;;;;;;;;;5034521;28;20673;-80
2023/04/03 10:08:24;;;;;;;9.57;6.40;;;;;;;;;;5043694;28;20060;-78
2023/04/03 10:11:11;;;;;;;9.27;6.70;;;;;;;;;;5018125;28;20425;-77
2023/04/03 10:13:52;;;;;;;10.38;6.60;;;;;;;;;;5025306;28;20393;-79
2023/04/03 10:16:22;;;;;;;9.90;6.88;;;;;;;;;;5015567;28;20053;-78
2023/04/03 10:18:59;;;;;;;8.43;6.75;;;;;;;;;;5018591;28;20042;-78
2023/04/03 10:21:36;;;;;;;9.40;6.22;;;;;;;;;;5025745;28;20050;-79
2023/04/03 10:24:10;;;;;;;8.82;6.57;;;;;;;;;;5030252;28;20084;-78
2023/04/03 10:26:45;;;;;;;9.98;6.53;;;;;;;;;;5034965;28;20053;-78
2023/04/03 10:29:37;;;;;;;11.32;6.25;;;;;;;;;;5036950;28;20069;-78
2023/04/03 10:32:20;;;;;;;9.95;5.72;;;;;;;;;;5028767;28;20052;-79
2023/04/03 10:34:47;;;;;;;9.50;5.45;;;;;;;;;;5016520;28;20129;-78
2023/04/03 10:37:22;;;;;;;8.32;5.70;;;;;;;;;;5026869;28;20050;-79
2023/04/03 10:39:57;;;;;;;7.07;5.25;;;;;;;;;;5021042;28;20579;-78
2023/04/03 10:42:35;;;;;;;8.48;5.20;;;;;;;;;;5036705;28;20049;-78
2023/04/03 10:45:15;;;;;;;8.32;4.88;;;;;;;;;;5035906;28;20093;-79
2023/04/03 10:47:53;;;;;;;10.07;4.65;;;;;;;;;;5045812;28;20057;-77
2023/04/03 10:50:30;;;;;;;9.48;4.65;;;;;;;;;;5036610;28;20045;-78
2023/04/03 10:53:02;;;;;;;7.63;4.22;;;;;;;;;;5023822;28;20049;-77
2023/04/03 10:55:36;;;;;;;10.90;4.90;;;;;;;;;;5018510;28;20049;-78
2023/04/03 10:58:05;;;;;;;9.32;5.18;;;;;;;;;;5034628;28;20042;-78
2023/04/03 11:00:38;;;;;;;5.72;4.22;;;;;;;;;;5035585;28;20052;-79
2023/04/03 11:03:09;;;;;;;6.65;4.38;;;;;;;;;;5028502;28;20500;-78
2023/04/03 11:05:43;;;;;;;7.85;4.60;;;;;;;;;;5036002;28;20184;-81
2023/04/03 11:08:27;;;;;;;7.65;4.93;;;;;;;;;;5023612;28;20128;-79
2023/04/03 11:10:57;;;;;;;8.20;4.65;;;;;;;;;;5025687;28;20443;-80
2023/04/03 11:13:29;;;;;;;6.50;4.32;;;;;;;;;;5022033;28;20100;-78
2023/04/03 11:15:59;;;;;;;9.48;4.53;;;;;;;;;;5015354;28;20480;-79
2023/04/03 11:18:32;;;;;;;9.93;4.80;;;;;;;;;;5028945;28;20056;-78
2023/04/03 11:21:04;;;;;;;7.88;4.78;;;;;;;;;;5052468;28;20045;-81
2023/04/03 11:23:34;;;;;;;7.40;4.88;;;;;;;;;;5039186;28;20052;-81
2023/04/03 11:26:09;;;;;;;9.50;5.37;;;;;;;;;;5036609;28;20061;-78
2023/04/03 11:28:37;;;;;;;8.68;4.93;;;;;;;;;;5035289;28;20184;-78
2023/04/03 11:31:16;;;;;;;7.07;3.72;;;;;;;;;;5037028;28;20076;-84
2023/04/03 11:33:50;;;;;;;7.47;3.75;;;;;;;;;;5034736;28;20045;-79
2023/04/03 11:36:22;;;;;;;7.07;4.18;;;;;;;;;;5040734;28;20041;-80
2023/04/03 11:38:51;;;;;;;6.88;3.10;;;;;;;;;;5035642;28;20710;-76
2023/04/03 11:41:24;;;;;;;5.88;3.25;;;;;;;;;;5035572;28;20520;-78
2023/04/03 11:43:58;;;;;;;6.00;3.05;;;;;;;;;;5036395;28;20402;-81
2023/04/03 11:46:50;;;;;;;6.45;3.25;;;;;;;;;;5028605;28;20050;-79
2023/04/03 11:49:50;;;;;;;6.35;3.25;;;;;;;;;;5025223;28;20109;-78
2023/04/03 11:53:00;;;;;;;5.30;2.90;;;;;;;;;;5035298;28;20104;-77
2023/04/03 11:55:53;;;;;;;5.65;3.08;;;;;;;;;;5016008;28;20049;-78
2023/04/03 11:58:22;;;;;;;7.20;3.10;;;;;;;;;;5018982;28;20106;-79
2023/04/03 12:01:00;;;;;;;7.10;3.00;;;;;;;;;;5032995;28;20492;-77
2023/04/03 12:04:05;;;;;;;4.97;3.10;;;;;;;;;;5035606;28;20096;-82
2023/04/03 12:06:59;;;;;;;5.45;2.53;;;;;;;;;;5043428;28;20077;-79
2023/04/03 12:09:57;;;;;;;5.20;2.85;;;;;;;;;;5039629;28;20101;-77
2023/04/03 12:12:31;;;;;;;4.57;2.63;;;;;;;;;;5025754;28;20056;-81
2023/04/03 12:15:27;;;;;;;5.65;2.58;;;;;;;;;;5031209;28;20136;-78
2023/04/03 12:17:54;;;;;;;4.90;2.60;;;;;;;;;;5030861;28;20483;-78
2023/04/03 12:20:58;;;;;;;5.93;2.80;;;;;;;;;;5041115;28;20088;-79
2023/04/03 12:23:30;;;;;;;5.63;2.65;;;;;;;;;;5032467;28;20092;-79
2023/04/03 12:26:04;;;;;;;4.38;2.65;;;;;;;;;;5030998;28;20042;-79
2023/04/03 12:28:38;;;;;;;5.30;2.78;;;;;;;;;;5016823;28;20129;-78
2023/04/03 12:31:06;;;;;;;6.65;2.85;;;;;;;;;;5023115;28;20125;-80
2023/04/03 12:33:59;;;;;;;4.65;2.50;;;;;;;;;;5035960;28;20065;-77
2023/04/03 12:36:39;;;;;;;4.25;2.53;;;;;;;;;;5036442;28;20534;-79
2023/04/03 12:39:20;;;;;;;5.05;2.47;;;;;;;;;;5036817;28;20042;-79
2023/04/03 12:41:58;;;;;;;6.43;2.80;;;;;;;;;;5021420;28;20548;-78
2023/04/03 12:44:41;;;;;;;4.82;2.53;;;;;;;;;;5033585;28;20112;-81
2023/04/03 12:47:22;;;;;;;6.35;3.45;;;;;;;;;;5025040;28;20049;-76
2023/04/03 12:49:51;;;;;;;5.70;2.58;;;;;;;;;;5028392;28;20140;-78
2023/04/03 12:52:31;;;;;;;5.63;2.80;;;;;;;;;;5033010;28;20053;-78
2023/04/03 12:55:01;;;;;;;5.15;2.63;;;;;;;;;;5033748;28;20128;-80
2023/04/03 12:57:28;;;;;;;5.18;2.97;;;;;;;;;;5033550;28;20045;-77
2023/04/03 12:59:56;;;;;;;4.00;2.50;;;;;;;;;;5034039;28;20052;-80
2023/04/03 13:02:25;;;;;;;5.00;2.70;;;;;;;;;;5035302;28;20046;-76
2023/04/03 13:04:53;;;;;;;4.75;2.75;;;;;;;;;;5033860;28;20081;-79
2023/04/03 13:07:25;;;;;;;5.40;2.60;;;;;;;;;;5038172;28;20141;-83
2023/04/03 13:10:00;;;;;;;6.07;2.60;;;;;;;;;;5042984;28;20045;-81
2023/04/03 13:12:27;;;;;;;7.07;3.15;;;;;;;;;;5040934;28;20050;-81
2023/04/03 13:14:55;;;;;;;4.85;2.42;;;;;;;;;;5044248;28;20310;-82
2023/04/03 13:17:23;;;;;;;3.92;2.25;;;;;;;;;;5040220;28;20484;-79
2023/04/03 13:19:51;;;;;;;4.65;2.70;;;;;;;;;;5043987;28;20393;-78
2023/04/03 13:22:29;;;;;;;5.63;2.72;;;;;;;;;;5016217;28;20100;-78
2023/04/03 13:24:59;;;;;;;7.15;3.13;;;;;;;;;;5016793;28;20129;-81
2023/04/03 13:27:27;;;;;;;5.80;2.78;;;;;;;;;;5037111;28;20525;-78
2023/04/03 13:30:24;;;;;;;5.38;2.47;;;;;;;;;;5041564;28;20045;-76
2023/04/03 13:32:51;;;;;;;5.15;3.20;;;;;;;;;;5024083;28;20053;-78
2023/04/03 13:35:42;;;;;;;5.53;2.65;;;;;;;;;;5017949;28;20053;-77
2023/04/03 13:38:24;;;;;;;7.15;4.30;;;;;;;;;;5008846;28;20453;-78
2023/04/03 13:41:25;;;;;;;4.97;2.83;;;;;;;;;;5012639;28;20081;-76
2023/04/03 13:43:51;;;;;;;5.65;2.65;;;;;;;;;;5012437;28;20054;-76
2023/04/03 13:46:25;;;;;;;8.88;4.55;;;;;;;;;;5024685;28;20123;-77
2023/04/03 13:48:55;;;;;;;11.10;4.80;;;;;;;;;;5023963;28;20049;-77
2023/04/03 13:51:24;;;;;;;9.93;3.72;;;;;;;;;;5021195;28;20041;-76
2023/04/03 13:53:57;;;;;;;6.47;3.05;;;;;;;;;;5014983;28;20117;-77
2023/04/03 13:56:32;;;;;;;7.13;3.20;;;;;;;;;;5012645;28;20509;-78
2023/04/03 13:59:03;;;;;;;5.03;2.15;;;;;;;;;;5019015;28;20125;-79
2023/04/03 14:01:44;;;;;;;4.65;2.28;;;;;;;;;;5032270;28;20485;-77
2023/04/03 14:04:12;;;;;;;;;;;;;;;;;;5035865;28;20052;-77
2023/04/03 14:06:39;;;;;;;5.10;2.15;;;;;;;;;;5042993;28;19964;-76
2023/04/03 14:09:07;;;;;;;5.38;2.33;;;;;;;;;;5037157;28;20095;-76
2023/04/03 14:11:35;;;;;;;6.13;2.65;;;;;;;;;;5034630;28;20094;-77
2023/04/03 14:14:06;;;;;;;5.20;2.50;;;;;;;;;;5035262;28;20448;-77
2023/04/03 14:16:41;;;;;;;4.78;2.95;;;;;;;;;;5034874;28;20080;-77
2023/04/03 14:19:17;;;;;;;4.68;2.50;;;;;;;;;;5026031;28;20049;-77
2023/04/03 14:21:44;;;;;;;4.28;2.53;;;;;;;;;;5033190;28;20059;-77
2023/04/03 14:24:12;;;;;;;3.72;2.30;;;;;;;;;;5035461;28;20046;-77
2023/04/03 14:26:39;;;;;;;4.82;2.67;;;;;;;;;;5031872;28;20052;-76
2023/04/03 14:29:06;;;;;;;4.05;2.10;;;;;;;;;;5014484;28;20060;-78
2023/04/03 14:31:33;;;;;;;3.92;2.40;;;;;;;;;;5014764;28;20052;-78
2023/04/03 14:34:00;;;;;;;5.63;2.65;;;;;;;;;;5032873;28;20045;-77
2023/04/03 14:36:28;;;;;;;4.78;2.60;;;;;;;;;;5033781;28;20052;-77
2023/04/03 14:38:56;;;;;;;5.13;2.10;;;;;;;;;;5034654;28;20045;-77
2023/04/03 14:41:26;;;;;;;3.95;2.35;;;;;;;;;;5034645;28;20053;-80
2023/04/03 14:43:53;;;;;;;5.35;2.20;;;;;;;;;;5034138;28;20065;-79
2023/04/03 14:46:24;;;;;;;3.53;1.90;;;;;;;;;;5018761;28;20050;-77
2023/04/03 14:48:51;;;;;;;3.40;1.85;;;;;;;;;;5018180;28;20465;-75
2023/04/03 14:51:18;;;;;;;3.33;1.85;;;;;;;;;;5022499;28;20121;-77
2023/04/03 14:53:45;;;;;;;4.55;2.20;;;;;;;;;;5025583;28;20121;-78
2023/04/03 14:56:14;;;;;;;7.15;2.03;;;;;;;;;;5020853;28;20050;-77
2023/04/03 14:58:42;;;;;;;4.13;1.73;;;;;;;;;;5012879;28;20517;-76
2023/04/03 15:01:11;;;;;;;4.70;2.28;;;;;;;;;;5014486;28;20168;-77